createdAt,value
2022-09-27T00:00:16.554Z,7.40
2022-09-27T00:04:19.961Z,8.33
2022-09-27T00:08:23.111Z,9.60
2022-09-27T00:12:26.486Z,8.13
2022-09-27T00:16:33.932Z,11.10
2022-09-27T00:20:37.374Z,9.13
2022-09-27T00:24:40.518Z,9.17
2022-09-27T00:28:44.219Z,10.07
2022-09-27T00:32:48.912Z,8.13
2022-09-27T00:36:53.441Z,9.33
2022-09-27T00:40:56.697Z,9.70
2022-09-27T00:45:13.385Z,8.73
2022-09-27T00:49:22.171Z,9.60
2022-09-27T00:53:29.098Z,8.53
2022-09-27T00:57:32.695Z,9.57
2022-09-27T01:01:36.614Z,10.57
2022-09-27T01:05:42.015Z,9.83
2022-09-27T01:09:45.276Z,10.40
2022-09-27T01:14:04.936Z,11.57
2022-09-27T01:18:24.392Z,10.10
2022-09-27T01:22:34.724Z,11.00
2022-09-27T01:27:02.075Z,9.50
2022-09-27T01:31:19.936Z,9.27
2022-09-27T01:35:31.225Z,9.03
2022-09-27T01:39:48.716Z,10.60
2022-09-27T01:43:58.091Z,8.73
2022-09-27T01:48:09.242Z,8.97
2022-09-27T01:52:15.350Z,9.33
2022-09-27T01:56:23.825Z,11.10
2022-09-27T02:00:27.362Z,10.20
2022-09-27T02:04:35.356Z,9.90
2022-09-27T02:08:42.844Z,9.10
2022-09-27T02:12:53.760Z,10.73
2022-09-27T02:17:06.314Z,11.93
2022-09-27T02:21:16.305Z,22.80
2022-09-27T02:25:25.959Z,12.70
2022-09-27T02:29:35.508Z,11.77
2022-09-27T02:33:44.028Z,11.17
2022-09-27T02:37:49.070Z,12.33
2022-09-27T02:41:52.287Z,13.73
2022-09-27T02:46:07.421Z,13.10
2022-09-27T02:50:33.449Z,12.30
2022-09-27T02:54:46.777Z,13.10
2022-09-27T02:58:59.494Z,12.80
2022-09-27T03:03:09.801Z,13.57
2022-09-27T03:07:14.882Z,16.03
2022-09-27T03:11:20.064Z,14.40
2022-09-27T03:15:23.522Z,14.50
2022-09-27T03:19:27.178Z,13.63
2022-09-27T03:23:30.361Z,13.70
2022-09-27T03:27:35.201Z,16.87
2022-09-27T03:31:38.903Z,14.57
2022-09-27T03:35:43.962Z,15.70
2022-09-27T03:39:47.230Z,15.97
2022-09-27T03:43:51.961Z,15.60
2022-09-27T03:47:55.379Z,16.40
2022-09-27T03:51:58.657Z,16.20
2022-09-27T03:56:01.955Z,16.13
2022-09-27T04:00:08.195Z,14.37
2022-09-27T04:04:11.703Z,15.57
2022-09-27T04:08:15.059Z,14.97
2022-09-27T04:12:18.242Z,13.97
2022-09-27T04:16:23.121Z,15.37
2022-09-27T04:20:26.294Z,14.07
2022-09-27T04:24:29.882Z,14.50
2022-09-27T04:28:33.541Z,14.77
2022-09-27T04:32:42.551Z,15.40
2022-09-27T04:36:45.971Z,17.67
2022-09-27T04:40:50.858Z,15.63
2022-09-27T04:44:55.221Z,16.60
2022-09-27T04:49:00.412Z,18.87
2022-09-27T04:53:03.704Z,20.37
2022-09-27T04:57:06.985Z,19.10
2022-09-27T05:01:11.683Z,19.33
2022-09-27T05:05:17.357Z,23.70
2022-09-27T05:09:21.086Z,25.40
2022-09-27T05:13:24.729Z,18.50
2022-09-27T05:17:28.163Z,19.90
2022-09-27T05:21:33.193Z,19.83
2022-09-27T05:25:38.260Z,17.43
2022-09-27T05:29:43.388Z,22.17
2022-09-27T05:33:46.908Z,20.50
2022-09-27T05:37:55.480Z,19.43
2022-09-27T05:41:59.321Z,18.90
2022-09-27T05:46:02.529Z,20.33
2022-09-27T05:50:09.917Z,17.60
2022-09-27T05:54:14.553Z,15.20
2022-09-27T05:58:17.944Z,13.90
2022-09-27T06:02:21.611Z,13.90
2022-09-27T06:06:24.830Z,13.80
2022-09-27T06:10:31.727Z,12.67
2022-09-27T06:14:35.162Z,10.30
2022-09-27T06:18:38.796Z,10.00
2022-09-27T06:22:42.317Z,10.30
2022-09-27T06:26:46.967Z,10.07
2022-09-27T06:30:51.632Z,10.60
2022-09-27T06:34:54.945Z,11.03
2022-09-27T06:39:01.652Z,11.60
2022-09-27T06:43:08.234Z,10.03
2022-09-27T06:47:12.110Z,9.60
2022-09-27T06:51:15.599Z,9.83
2022-09-27T06:55:19.132Z,8.73
2022-09-27T06:59:41.739Z,10.43
2022-09-27T07:03:44.923Z,9.07
2022-09-27T07:07:49.044Z,9.67
2022-09-27T07:11:54.826Z,9.37
2022-09-27T07:16:01.575Z,8.90
2022-09-27T07:20:05.416Z,9.27
2022-09-27T07:24:08.803Z,7.93
2022-09-27T07:28:21.568Z,9.07
2022-09-27T07:32:26.890Z,9.40
2022-09-27T07:36:31.309Z,9.03
2022-09-27T07:40:34.496Z,7.03
2022-09-27T07:44:37.768Z,9.97
2022-09-27T07:48:42.453Z,8.63
2022-09-27T07:52:48.538Z,8.70
2022-09-27T07:56:51.891Z,8.50
2022-09-27T08:00:56.986Z,11.13
2022-09-27T08:05:03.153Z,11.07
2022-09-27T08:09:09.849Z,9.87
2022-09-27T08:13:13.584Z,12.40
2022-09-27T08:17:17.463Z,24.33
2022-09-27T08:21:21.998Z,19.50
2022-09-27T08:25:25.425Z,15.47
2022-09-27T08:29:28.886Z,17.33
2022-09-27T08:33:34.131Z,19.13
2022-09-27T08:37:42.644Z,10.40
2022-09-27T08:41:54.085Z,7.80
2022-09-27T08:46:11.441Z,7.27
2022-09-27T08:50:28.322Z,8.47
2022-09-27T08:54:36.664Z,9.60
2022-09-27T08:58:48.514Z,8.70
2022-09-27T09:02:52.116Z,11.57
2022-09-27T09:07:08.035Z,8.50
2022-09-27T09:11:44.082Z,8.20
2022-09-27T09:15:58.237Z,7.00
2022-09-27T09:20:17.717Z,6.70
2022-09-27T09:24:40.713Z,6.37
2022-09-27T09:28:59.339Z,6.90
2022-09-27T09:33:17.165Z,7.07
2022-09-27T09:37:24.735Z,6.13
2022-09-27T09:41:33.123Z,7.70
2022-09-27T09:45:43.457Z,8.30
2022-09-27T09:49:52.138Z,7.30
2022-09-27T09:54:00.082Z,7.90
2022-09-27T09:58:08.345Z,7.90
2022-09-27T10:02:28.882Z,6.30
2022-09-27T10:06:33.149Z,7.40
2022-09-27T10:10:37.798Z,7.20
2022-09-27T10:14:42.301Z,6.53
2022-09-27T10:18:50.123Z,5.00
2022-09-27T10:22:57.418Z,5.70
2022-09-27T10:27:03.942Z,2.90
2022-09-27T10:31:08.975Z,3.30
2022-09-27T10:35:36.813Z,2.50
2022-09-27T10:39:41.511Z,2.23
2022-09-27T10:43:44.829Z,2.43
2022-09-27T10:47:48.413Z,1.60
2022-09-27T10:51:55.761Z,1.90
2022-09-27T10:55:59.464Z,1.87
2022-09-27T11:00:07.537Z,2.73
2022-09-27T11:04:21.154Z,2.57
2022-09-27T11:08:31.204Z,3.00
2022-09-27T11:12:35.766Z,2.63
2022-09-27T11:16:51.848Z,3.03
2022-09-27T11:21:05.215Z,2.77
2022-09-27T11:25:21.656Z,2.77
2022-09-27T11:29:34.834Z,2.90
2022-09-27T11:33:55.711Z,2.60
2022-09-27T11:38:10.791Z,2.90
2022-09-27T11:42:34.404Z,2.60
2022-09-27T11:46:41.865Z,3.10
2022-09-27T11:50:57.750Z,3.13
2022-09-27T11:55:13.133Z,2.67
2022-09-27T11:59:45.364Z,2.20
2022-09-27T12:04:22.279Z,2.60
2022-09-27T12:08:39.579Z,2.60
2022-09-27T12:12:45.835Z,2.57
2022-09-27T12:16:55.090Z,2.30
2022-09-27T12:21:01.373Z,2.27
2022-09-27T12:25:05.845Z,2.67
2022-09-27T12:29:16.758Z,2.47
2022-09-27T12:33:34.794Z,1.80
2022-09-27T12:37:44.108Z,2.60
2022-09-27T12:41:52.933Z,2.40
2022-09-27T12:46:08.357Z,2.60
2022-09-27T12:50:22.239Z,2.67
2022-09-27T12:54:56.055Z,3.50
2022-09-27T12:59:17.578Z,2.80
2022-09-27T13:03:35.975Z,4.50
2022-09-27T13:07:53.546Z,4.50
2022-09-27T13:12:08.663Z,3.70
2022-09-27T13:16:12.421Z,4.10
2022-09-27T13:20:49.559Z,4.63
2022-09-27T13:24:54.717Z,4.83
2022-09-27T13:29:03.881Z,4.37
2022-09-27T13:33:34.771Z,4.40
2022-09-27T13:37:48.534Z,4.10
2022-09-27T13:42:15.755Z,4.57
2022-09-27T13:46:22.568Z,5.47
2022-09-27T13:50:28.006Z,4.73
2022-09-27T13:54:50.819Z,4.33
2022-09-27T13:59:01.222Z,4.03
2022-09-27T14:03:07.033Z,5.10
2022-09-27T14:07:19.828Z,5.73
2022-09-27T14:11:27.784Z,5.17
2022-09-27T14:15:34.199Z,5.60
2022-09-27T14:19:41.538Z,4.50
2022-09-27T14:28:45.102Z,4.80
2022-09-27T14:32:51.289Z,5.30
2022-09-27T14:37:12.662Z,4.13
2022-09-27T14:41:58.279Z,6.47
2022-09-27T14:46:03.156Z,4.37
2022-09-27T14:50:20.834Z,5.40
2022-09-27T14:54:26.913Z,4.40
2022-09-27T14:58:46.467Z,4.37
2022-09-27T15:02:55.319Z,4.80
2022-09-27T15:07:01.835Z,5.20
2022-09-27T15:11:07.677Z,6.80
2022-09-27T15:15:16.581Z,4.80
2022-09-27T15:19:28.077Z,4.10
2022-09-27T15:23:37.241Z,3.63
2022-09-27T15:27:40.746Z,3.67
2022-09-27T15:31:44.549Z,4.03
2022-09-27T15:35:54.157Z,3.63
2022-09-27T15:40:25.982Z,3.50
2022-09-27T15:44:44.531Z,3.37
2022-09-27T15:49:25.969Z,3.83
2022-09-27T15:53:46.882Z,4.47
2022-09-27T15:57:59.391Z,4.00
2022-09-27T16:02:08.015Z,4.73
2022-09-27T16:06:14.567Z,3.57
2022-09-27T16:10:21.099Z,4.43
2022-09-27T16:14:25.687Z,4.40
2022-09-27T16:18:30.762Z,4.63
2022-09-27T16:22:34.377Z,6.23
2022-09-27T16:26:38.584Z,5.27
2022-09-27T16:30:43.242Z,6.03
2022-09-27T16:34:47.922Z,6.20
2022-09-27T16:38:53.468Z,5.97
2022-09-27T16:42:57.374Z,6.17
2022-09-27T16:47:02.474Z,6.20
2022-09-27T16:51:26.206Z,6.40
2022-09-27T16:55:30.673Z,5.77
2022-09-27T16:59:37.858Z,4.93
2022-09-27T17:03:42.996Z,4.93
2022-09-27T17:07:46.428Z,5.00
2022-09-27T17:11:50.518Z,5.50
2022-09-27T17:15:54.435Z,5.00
2022-09-27T17:19:59.473Z,7.27
2022-09-27T17:24:02.954Z,6.87
2022-09-27T17:28:06.586Z,6.80
2022-09-27T17:32:09.938Z,5.80
2022-09-27T17:36:17.877Z,7.10
2022-09-27T17:40:21.150Z,5.70
2022-09-27T17:44:26.998Z,5.33
2022-09-27T17:48:49.068Z,7.07
2022-09-27T17:53:04.814Z,7.70
2022-09-27T17:57:09.249Z,6.80
2022-09-27T18:01:13.166Z,9.53
2022-09-27T18:05:18.678Z,9.10
2022-09-27T18:09:27.425Z,8.60
2022-09-27T18:13:39.713Z,10.17
2022-09-27T18:17:55.816Z,9.97
2022-09-27T18:22:10.123Z,9.80
2022-09-27T18:26:16.065Z,12.53
2022-09-27T18:30:23.037Z,10.63
2022-09-27T18:34:27.248Z,11.00
2022-09-27T18:38:33.290Z,11.30
2022-09-27T18:42:41.942Z,12.40
2022-09-27T18:46:51.204Z,11.50
2022-09-27T18:50:55.053Z,11.80
2022-09-27T18:55:00.807Z,9.30
2022-09-27T18:59:14.942Z,12.40
2022-09-27T19:03:19.609Z,10.13
2022-09-27T19:07:24.459Z,10.67
2022-09-27T19:11:34.337Z,8.53
2022-09-27T19:15:39.934Z,10.30
2022-09-27T19:19:44.844Z,8.43
2022-09-27T19:23:50.456Z,8.77
2022-09-27T19:27:55.945Z,9.00
2022-09-27T19:32:00.738Z,9.97
2022-09-27T19:36:06.564Z,10.47
2022-09-27T19:40:10.874Z,13.80
2022-09-27T19:44:14.667Z,13.30
2022-09-27T19:48:19.694Z,13.67
2022-09-27T19:52:23.104Z,14.30
2022-09-27T19:56:27.085Z,14.00
2022-09-27T20:00:30.454Z,14.50
2022-09-27T20:04:35.116Z,15.17
2022-09-27T20:08:39.219Z,14.07
2022-09-27T20:12:45.184Z,13.80
2022-09-27T20:16:48.941Z,12.87
2022-09-27T20:20:53.571Z,14.30
2022-09-27T20:24:57.044Z,12.63
2022-09-27T20:29:02.747Z,13.07
2022-09-27T20:33:24.684Z,13.37
2022-09-27T20:37:29.664Z,8.77
2022-09-27T20:41:37.419Z,7.80
2022-09-27T20:45:41.618Z,6.40
2022-09-27T20:49:45.697Z,5.40
2022-09-27T20:53:52.018Z,5.30
2022-09-27T20:57:57.789Z,6.10
2022-09-27T21:02:01.384Z,5.47
2022-09-27T21:06:05.267Z,5.70
2022-09-27T21:10:10.560Z,5.60
2022-09-27T21:14:14.066Z,5.87
2022-09-27T21:18:20.131Z,5.10
2022-09-27T21:22:23.511Z,3.97
2022-09-27T21:26:30.596Z,3.80
2022-09-27T21:30:34.265Z,4.17
2022-09-27T21:34:37.634Z,3.50
2022-09-27T21:38:41.102Z,3.30
2022-09-27T21:42:45.710Z,4.10
2022-09-27T21:46:50.556Z,3.00
2022-09-27T21:51:02.336Z,3.80
2022-09-27T21:55:06.562Z,3.87
2022-09-27T21:59:15.167Z,3.77
2022-09-27T22:03:20.344Z,4.40
2022-09-27T22:07:24.703Z,3.33
2022-09-27T22:11:30.584Z,3.63
2022-09-27T22:15:37.797Z,2.93
2022-09-27T22:19:40.997Z,3.80
2022-09-27T22:23:45.543Z,3.50
2022-09-27T22:27:48.852Z,3.90
2022-09-27T22:31:53.663Z,3.03
2022-09-27T22:35:56.863Z,3.67
2022-09-27T22:40:00.346Z,4.47
2022-09-27T22:44:03.567Z,3.40
2022-09-27T22:48:08.159Z,3.40
2022-09-27T22:52:12.773Z,2.77
2022-09-27T22:56:18.968Z,3.60
2022-09-27T23:00:22.266Z,2.77
2022-09-27T23:04:27.140Z,3.93
2022-09-27T23:08:30.661Z,3.37
2022-09-27T23:12:34.081Z,3.90
2022-09-27T23:16:38.285Z,3.33
2022-09-27T23:20:43.639Z,4.33
2022-09-27T23:24:46.839Z,3.33
2022-09-27T23:28:53.141Z,3.70
2022-09-27T23:32:56.652Z,2.90
2022-09-27T23:37:02.531Z,3.27
2022-09-27T23:41:07.606Z,3.50
2022-09-27T23:45:11.799Z,3.23
2022-09-27T23:49:15.370Z,3.60
2022-09-27T23:53:20.461Z,4.60
2022-09-27T23:57:23.889Z,2.50
